EGNT Airport Information

Runway Information
Runway 07 Length 7642 ft width 151 ft
Elevation 263 ft Threshold 394 ft Heading 65
Runway 25 Length 7642 ft Width 151 ft
Elevation 239 ft Threshold 446 ft Heading 245
Airport Frequencies
Type APP Name APP Frequency 124.375 MHZ
Type ATIS Name ATIS Frequency 118.375 MHZ
Type GND Name GND Frequency 121.725 MHZ
Type ILS Name Runway 07/ Frequency 111.5 MHZ
Type TWR Name TWR Frequency 119.7 MHZ
Airport Navaids
Type VOR-DME Name Newcastle Frequency 114250 KHZ
Airport Weather Information & NOTAM
ADDS - METARS form results

(1429 UTC 11 August 2022)
Data provider http://aviationweather.gov/metar/data/
 
METAR text: EGNT 111420Z 33005KT 270V030 CAVOK 29/08 Q1021
Conditions at: EGNT (NEWCASTLE , GB) observed 1420 UTC 11 August 2022
Temperature: 29.0°C (84°F)
Dewpoint: 8.0°C (46°F) [RH = 27%]
Pressure (altimeter): 30.15 inches Hg (1021.0 mb)
Winds: from the NNW (330 degrees) at 6 MPH (5 knots; 2.6 m/s)
Visibility: 6 or more miles (10+ km)
Ceiling: ceiling and visibility are OK
Clouds: unknown
Weather: no significant weather observed at this time

METAR text: EGNT 111350Z 30005KT 250V350 CAVOK 30/10 Q1021
Conditions at: EGNT (NEWCASTLE , GB) observed 1350 UTC 11 August 2022
Temperature: 30.0°C (86°F)
Dewpoint: 10.0°C (50°F) [RH = 29%]
Pressure (altimeter): 30.15 inches Hg (1021.0 mb)
Winds: from the WNW (300 degrees) at 6 MPH (5 knots; 2.6 m/s)
Visibility: 6 or more miles (10+ km)
Ceiling: ceiling and visibility are OK
Clouds: unknown
Weather: no significant weather observed at this time

Forecast for: EGNT (NEWCASTLE , GB)
Text: TAF EGNT 111054Z 1112/1212 24004KT CAVOK
Forecast period: 1200 UTC 11 August 2022 to 1200 UTC 12 August 2022
Forecast type: FROM: standard forecast or significant change
Winds: from the WSW (240 degrees) at 5 MPH (4 knots; 2.1 m/s)
Visibility: 6 or more miles (10+ km)
Ceiling: unknown
Clouds: missing
Weather: NSW  (no significant weather)
Text: PROB40 1112/1120 11010KT
Forecast period: 1200 to 2000 UTC 11 August 2022
Forecast type: PROBABLE: 40 percent likelihood of the following during this time
Winds: from the ESE (110 degrees) at 12 MPH (10 knots; 5.1 m/s)
Visibility: missing
Ceiling: unknown
Clouds: missing
Weather: no significant weather forecast for this period